Portada
METAR-TAF:

METAR-TAF

Aeroports :

Johnson County Executive Airport

Olathe, Kansas, Estats Units d'Amèrica

latitud: 38-51-00N, longitud: 094-44-21W, altitud: 334 m

Observació

L'informe es va fer fa 46 minuts, a les 06:53 UTC
Vent 9 kt del Sud/Sud-Oest
Temperatura 20°C
Humitat 78%
Pressió 1017 hPa
Visibilitat: 16.1 km
Cel clar

METAR: KOJC 020653Z AUTO 21009KT 10SM CLR 20/16 A3004 RMK AO2 SLP161 T02000161

Hora: 02:39 (07:39 UTC)


TAF: manca

Observacions i pronòstics meteorològics de més de 4000 aeroports (METAR i TAF).

Les estacions disponibles són els punts grocs i vermells al mapa.

Posi el ratolí al punt desitjat per veure el nom de l'estació.

Feu clic per veure les observacions i els pronòstics meteorològics.

Per canviar el mapa: feu clic els botons verds amb una creu de color negre per apropar; al botó verd amb un guió per allunyar la imatge; o en les fletxes verdes per a mapes adjacents.


METAR-TAF: